createdAt,value
2022-08-26T00:01:34.656Z,3.65
2022-08-26T00:04:26.326Z,3.30
2022-08-26T00:07:15.837Z,3.42
2022-08-26T00:10:06.717Z,3.08
2022-08-26T00:12:56.080Z,3.25
2022-08-26T00:15:48.137Z,3.38
2022-08-26T00:18:40.731Z,3.40
2022-08-26T00:21:30.123Z,3.42
2022-08-26T00:24:21.856Z,3.25
2022-08-26T00:27:11.638Z,3.20
2022-08-26T00:30:02.651Z,2.80
2022-08-26T00:32:52.538Z,3.45
2022-08-26T00:35:45.347Z,3.17
2022-08-26T00:38:37.902Z,3.25
2022-08-26T00:41:28.677Z,3.25
2022-08-26T00:44:18.650Z,3.25
2022-08-26T00:47:21.638Z,3.50
2022-08-26T00:50:15.661Z,3.10
2022-08-26T00:53:23.987Z,3.28
2022-08-26T00:56:32.938Z,3.30
2022-08-26T00:59:23.759Z,3.25
2022-08-26T01:02:20.138Z,3.42
2022-08-26T01:05:13.825Z,3.53
2022-08-26T01:08:03.673Z,3.20
2022-08-26T01:10:55.788Z,3.50
2022-08-26T01:13:45.668Z,3.53
2022-08-26T01:16:36.664Z,3.13
2022-08-26T01:19:39.040Z,3.40
2022-08-26T01:23:01.655Z,3.40
2022-08-26T01:25:57.353Z,3.08
2022-08-26T01:28:51.838Z,3.22
2022-08-26T01:31:45.415Z,3.15
2022-08-26T01:34:38.547Z,3.30
2022-08-26T01:37:34.317Z,3.10
2022-08-26T01:40:29.328Z,3.10
2022-08-26T01:43:25.478Z,3.47
2022-08-26T01:46:17.445Z,2.90
2022-08-26T01:49:09.797Z,3.10
2022-08-26T01:52:00.437Z,3.38
2022-08-26T01:54:51.677Z,3.20
2022-08-26T01:57:41.804Z,3.73
2022-08-26T02:00:32.691Z,3.47
2022-08-26T02:03:25.316Z,3.28
2022-08-26T02:06:14.998Z,3.28
2022-08-26T02:09:06.638Z,3.28
2022-08-26T02:11:56.784Z,3.53
2022-08-26T02:14:51.597Z,3.15
2022-08-26T02:17:45.637Z,3.35
2022-08-26T02:20:36.317Z,3.38
2022-08-26T02:23:26.519Z,3.05
2022-08-26T02:26:19.359Z,3.25
2022-08-26T02:29:16.237Z,3.50
2022-08-26T02:32:09.477Z,3.25
2022-08-26T02:34:58.917Z,3.50
2022-08-26T02:37:50.204Z,3.30
2022-08-26T02:40:43.277Z,3.72
2022-08-26T02:43:36.596Z,3.45
2022-08-26T02:46:27.876Z,3.30
2022-08-26T02:49:20.539Z,3.60
2022-08-26T02:52:10.297Z,3.95
2022-08-26T02:54:59.883Z,3.80
2022-08-26T02:57:49.334Z,3.90
2022-08-26T03:00:52.626Z,3.90
2022-08-26T03:03:42.918Z,3.75
2022-08-26T03:06:32.613Z,3.60
2022-08-26T03:09:22.306Z,3.35
2022-08-26T03:12:13.118Z,3.88
2022-08-26T03:15:16.053Z,3.78
2022-08-26T03:18:08.277Z,3.33
2022-08-26T03:20:57.639Z,3.38
2022-08-26T03:23:47.602Z,3.70
2022-08-26T03:26:36.843Z,3.53
2022-08-26T03:29:44.718Z,3.88
2022-08-26T03:32:39.118Z,3.63
2022-08-26T03:35:32.437Z,3.80
2022-08-26T03:38:24.077Z,3.80
2022-08-26T03:41:13.739Z,3.95
2022-08-26T03:44:03.448Z,4.18
2022-08-26T03:46:52.981Z,3.75
2022-08-26T03:49:42.798Z,3.90
2022-08-26T03:52:32.653Z,3.72
2022-08-26T03:55:25.484Z,4.15
2022-08-26T03:58:16.480Z,4.05
2022-08-26T04:01:06.107Z,3.75
2022-08-26T04:04:01.318Z,3.75
2022-08-26T04:06:51.618Z,4.25
2022-08-26T04:09:41.241Z,3.70
2022-08-26T04:12:31.038Z,3.80
2022-08-26T04:15:20.917Z,4.05
2022-08-26T04:18:10.797Z,4.00
2022-08-26T04:21:03.265Z,3.58
2022-08-26T04:23:58.318Z,3.80
2022-08-26T04:26:47.929Z,3.90
2022-08-26T04:29:37.357Z,3.88
2022-08-26T04:32:28.636Z,3.85
2022-08-26T04:35:18.573Z,4.00
2022-08-26T04:38:11.798Z,3.95
2022-08-26T04:41:02.757Z,3.95
2022-08-26T04:43:55.263Z,3.90
2022-08-26T04:46:44.978Z,3.58
2022-08-26T04:49:38.277Z,3.60
2022-08-26T04:52:27.796Z,3.20
2022-08-26T04:55:17.903Z,3.95
2022-08-26T04:58:12.136Z,3.47
2022-08-26T05:01:02.836Z,3.80
2022-08-26T05:03:53.901Z,3.80
2022-08-26T05:06:43.518Z,3.50
2022-08-26T05:09:33.100Z,3.50
2022-08-26T05:12:22.677Z,3.55
2022-08-26T05:15:12.597Z,3.55
2022-08-26T05:18:02.157Z,3.28
2022-08-26T05:20:55.770Z,3.30
2022-08-26T05:23:45.278Z,3.75
2022-08-26T05:26:34.706Z,3.40
2022-08-26T05:29:24.918Z,3.38
2022-08-26T05:32:14.202Z,3.10
2022-08-26T05:35:04.157Z,3.17
2022-08-26T05:37:58.317Z,3.00
2022-08-26T05:40:52.765Z,3.00
2022-08-26T05:43:42.677Z,3.03
2022-08-26T05:46:32.852Z,3.10
2022-08-26T05:49:26.392Z,3.10
2022-08-26T05:55:06.317Z,3.15
2022-08-26T05:57:55.793Z,3.00
2022-08-26T06:00:45.457Z,3.05
2022-08-26T06:03:38.202Z,2.90
2022-08-26T06:06:31.317Z,3.00
2022-08-26T06:09:20.811Z,2.90
2022-08-26T06:12:12.197Z,3.35
2022-08-26T06:15:04.956Z,3.10
2022-08-26T06:17:54.437Z,2.85
2022-08-26T06:20:57.329Z,2.92
2022-08-26T06:24:07.468Z,2.90
2022-08-26T06:27:02.921Z,2.72
2022-08-26T06:29:52.476Z,2.72
2022-08-26T06:32:42.857Z,2.30
2022-08-26T06:35:32.298Z,2.88
2022-08-26T06:38:22.732Z,2.60
2022-08-26T06:41:12.834Z,2.70
2022-08-26T06:44:07.263Z,2.50
2022-08-26T06:46:56.917Z,2.80
2022-08-26T06:49:48.116Z,2.60
2022-08-26T06:52:38.957Z,2.40
2022-08-26T06:55:29.080Z,2.30
2022-08-26T06:58:19.176Z,2.50
2022-08-26T07:01:23.216Z,2.45
2022-08-26T07:04:15.724Z,2.50
2022-08-26T07:07:09.694Z,2.78
2022-08-26T07:09:59.402Z,2.85
2022-08-26T07:12:50.045Z,2.53
2022-08-26T07:15:44.127Z,2.83
2022-08-26T07:18:36.437Z,2.70
2022-08-26T07:21:26.957Z,2.47
2022-08-26T07:24:17.838Z,2.25
2022-08-26T07:27:10.520Z,2.25
2022-08-26T07:29:59.997Z,2.63
2022-08-26T07:32:51.957Z,2.30
2022-08-26T07:35:41.798Z,2.30
2022-08-26T07:38:33.958Z,2.28
2022-08-26T07:41:26.489Z,2.40
2022-08-26T07:44:17.716Z,2.10
2022-08-26T07:47:19.385Z,2.28
2022-08-26T07:50:15.417Z,2.35
2022-08-26T07:53:06.364Z,1.95
2022-08-26T07:56:00.203Z,2.20
2022-08-26T07:58:51.861Z,2.10
2022-08-26T08:01:45.021Z,2.70
2022-08-26T08:04:35.000Z,2.35
2022-08-26T08:07:25.811Z,2.05
2022-08-26T08:10:35.335Z,2.53
2022-08-26T08:13:25.979Z,2.08
2022-08-26T08:16:15.639Z,2.13
2022-08-26T08:19:05.017Z,2.20
2022-08-26T08:21:56.079Z,2.20
2022-08-26T08:24:45.963Z,2.10
2022-08-26T08:27:40.717Z,2.10
2022-08-26T08:30:30.505Z,2.40
2022-08-26T08:33:19.917Z,2.10
2022-08-26T08:36:10.685Z,2.33
2022-08-26T08:39:08.428Z,2.38
2022-08-26T08:42:30.838Z,2.20
2022-08-26T08:45:38.677Z,2.35
2022-08-26T08:48:33.876Z,2.50
2022-08-26T08:51:26.649Z,2.20
2022-08-26T08:54:16.137Z,2.67
2022-08-26T08:57:34.091Z,2.15
2022-08-26T09:00:30.514Z,2.53
2022-08-26T09:03:38.118Z,2.45
2022-08-26T09:06:28.237Z,2.22
2022-08-26T09:09:25.401Z,2.25
2022-08-26T09:12:29.326Z,2.33
2022-08-26T09:15:26.395Z,1.95
2022-08-26T09:18:26.857Z,2.10
2022-08-26T09:21:19.996Z,2.33
2022-08-26T09:24:11.329Z,2.13
2022-08-26T09:27:03.483Z,2.20
2022-08-26T09:30:00.876Z,2.22
2022-08-26T09:33:11.034Z,2.03
2022-08-26T09:36:24.945Z,2.05
2022-08-26T09:39:29.483Z,2.25
2022-08-26T09:42:26.397Z,2.22
2022-08-26T09:45:17.033Z,2.10
2022-08-26T09:48:10.213Z,2.10
2022-08-26T09:51:30.217Z,1.95
2022-08-26T09:54:30.216Z,2.45
2022-08-26T09:57:36.958Z,2.10
2022-08-26T10:00:31.227Z,1.95
2022-08-26T10:03:36.078Z,2.35
2022-08-26T10:06:27.653Z,2.30
2022-08-26T10:09:19.917Z,2.27
2022-08-26T10:12:14.762Z,2.13
2022-08-26T10:15:10.801Z,2.47
2022-08-26T10:18:35.998Z,2.33
2022-08-26T10:21:33.836Z,2.03
2022-08-26T10:24:49.855Z,2.30
2022-08-26T10:28:19.310Z,2.17
2022-08-26T10:31:27.476Z,2.10
2022-08-26T10:34:21.210Z,2.30
2022-08-26T10:37:23.773Z,2.30
2022-08-26T10:40:23.688Z,2.38
2022-08-26T10:43:37.263Z,2.38
2022-08-26T10:46:40.964Z,2.50
2022-08-26T10:49:30.879Z,2.50
2022-08-26T10:53:04.700Z,2.40
2022-08-26T10:56:00.107Z,2.58
2022-08-26T10:59:28.943Z,2.40
2022-08-26T11:02:38.360Z,2.50
2022-08-26T11:05:27.825Z,2.85
2022-08-26T11:08:23.198Z,2.38
2022-08-26T11:11:14.359Z,2.58
2022-08-26T11:14:11.977Z,2.50
2022-08-26T11:17:03.289Z,2.55
2022-08-26T11:20:01.696Z,2.80
2022-08-26T11:22:53.837Z,2.50
2022-08-26T11:25:58.044Z,2.65
2022-08-26T11:28:51.559Z,2.97
2022-08-26T11:31:41.975Z,3.00
2022-08-26T11:34:56.354Z,2.92
2022-08-26T11:38:24.377Z,3.00
2022-08-26T11:41:21.797Z,3.50
2022-08-26T11:44:11.840Z,3.35
2022-08-26T11:47:04.252Z,3.08
2022-08-26T11:50:16.277Z,3.45
2022-08-26T11:53:07.742Z,3.67
2022-08-26T11:55:59.663Z,3.22
2022-08-26T11:58:50.043Z,3.50
2022-08-26T12:01:44.747Z,3.38
2022-08-26T12:04:38.710Z,3.60
2022-08-26T12:07:30.687Z,3.13
2022-08-26T12:10:31.277Z,4.40
2022-08-26T12:13:26.843Z,4.10
2022-08-26T12:16:32.536Z,4.40
2022-08-26T12:19:33.389Z,3.95
2022-08-26T12:22:37.020Z,4.30
2022-08-26T12:25:27.167Z,4.75
2022-08-26T12:28:17.527Z,5.22
2022-08-26T12:31:09.186Z,5.40
2022-08-26T12:34:01.017Z,5.50
2022-08-26T12:36:55.898Z,5.13
2022-08-26T12:39:48.923Z,5.20
2022-08-26T12:42:43.577Z,4.50
2022-08-26T12:45:44.180Z,5.25
2022-08-26T12:48:41.037Z,4.47
2022-08-26T12:51:33.041Z,4.65
2022-08-26T12:54:42.518Z,4.18
2022-08-26T12:57:38.537Z,4.88
2022-08-26T13:00:40.618Z,4.35
2022-08-26T13:03:46.441Z,4.20
2022-08-26T13:06:37.290Z,4.38
2022-08-26T13:09:26.863Z,4.57
2022-08-26T13:12:32.603Z,3.90
2022-08-26T13:15:22.197Z,4.25
2022-08-26T13:18:11.339Z,4.47
2022-08-26T13:21:01.979Z,4.35
2022-08-26T13:23:52.249Z,4.22
2022-08-26T13:26:43.745Z,4.30
2022-08-26T13:29:33.084Z,4.25
2022-08-26T13:32:25.188Z,4.03
2022-08-26T13:35:16.957Z,4.55
2022-08-26T13:38:09.665Z,4.85
2022-08-26T13:41:00.799Z,4.45
2022-08-26T13:43:51.235Z,4.53
2022-08-26T13:46:41.108Z,4.68
2022-08-26T13:49:30.701Z,4.45
2022-08-26T13:52:27.294Z,4.32
2022-08-26T13:55:21.558Z,4.82
2022-08-26T13:58:12.155Z,4.63
2022-08-26T14:01:01.565Z,4.25
2022-08-26T14:03:51.158Z,4.80
2022-08-26T14:06:41.172Z,4.50
2022-08-26T14:09:30.771Z,4.40
2022-08-26T14:12:20.307Z,4.40
2022-08-26T14:15:10.237Z,4.85
2022-08-26T14:17:59.903Z,4.28
2022-08-26T14:20:51.375Z,4.82
2022-08-26T14:23:41.197Z,5.40
2022-08-26T14:26:31.912Z,5.57
2022-08-26T14:29:21.451Z,4.65
2022-08-26T14:32:18.908Z,4.38
2022-08-26T14:35:17.886Z,4.57
2022-08-26T14:38:07.438Z,4.68
2022-08-26T14:40:56.957Z,5.18
2022-08-26T14:43:55.597Z,5.18
2022-08-26T14:46:51.762Z,4.78
2022-08-26T14:49:41.117Z,4.75
2022-08-26T14:52:30.798Z,5.10
2022-08-26T14:55:20.299Z,4.80
2022-08-26T14:58:11.917Z,4.93
2022-08-26T15:01:04.144Z,5.20
2022-08-26T15:03:53.941Z,4.72
2022-08-26T15:06:43.419Z,4.80
2022-08-26T15:09:36.023Z,4.88
2022-08-26T15:12:25.358Z,5.00
2022-08-26T15:15:18.147Z,5.00
2022-08-26T15:18:07.886Z,4.88
2022-08-26T15:20:57.372Z,5.20
2022-08-26T15:23:48.463Z,5.15
2022-08-26T15:26:38.037Z,4.78
2022-08-26T15:29:27.337Z,4.90
2022-08-26T15:32:16.880Z,5.28
2022-08-26T15:35:09.079Z,5.47
2022-08-26T15:37:58.572Z,5.35
2022-08-26T15:40:47.936Z,5.13
2022-08-26T15:43:38.649Z,5.22
2022-08-26T15:46:28.738Z,4.85
2022-08-26T15:49:19.248Z,4.88
2022-08-26T15:52:09.665Z,5.10
2022-08-26T15:55:00.174Z,4.85
2022-08-26T15:57:50.717Z,5.28
2022-08-26T16:00:40.679Z,5.20
2022-08-26T16:03:30.036Z,5.05
2022-08-26T16:06:21.453Z,5.38
2022-08-26T16:09:12.397Z,4.97
2022-08-26T16:12:02.151Z,5.38
2022-08-26T16:14:54.931Z,4.57
2022-08-26T16:17:44.439Z,5.05
2022-08-26T16:20:36.038Z,4.97
2022-08-26T16:23:26.064Z,4.75
2022-08-26T16:26:18.557Z,4.75
2022-08-26T16:29:12.320Z,5.32
2022-08-26T16:32:01.677Z,5.00
2022-08-26T16:34:56.575Z,5.40
2022-08-26T16:37:46.918Z,4.75
2022-08-26T16:40:37.229Z,4.80
2022-08-26T16:43:26.433Z,5.40
2022-08-26T16:46:20.349Z,4.80
2022-08-26T16:49:10.037Z,5.00
2022-08-26T16:51:59.391Z,4.93
2022-08-26T16:54:48.618Z,5.35
2022-08-26T16:57:39.594Z,4.70
2022-08-26T17:00:31.155Z,4.85
2022-08-26T17:03:21.146Z,4.95
2022-08-26T17:06:11.437Z,5.38
2022-08-26T17:09:01.031Z,4.90
2022-08-26T17:11:51.718Z,4.68
2022-08-26T17:14:42.169Z,4.88
2022-08-26T17:17:31.663Z,4.93
2022-08-26T17:20:23.323Z,4.93
2022-08-26T17:23:13.097Z,4.88
2022-08-26T17:26:02.680Z,5.00
2022-08-26T17:28:52.198Z,4.70
2022-08-26T17:31:41.849Z,5.05
2022-08-26T17:34:33.017Z,4.57
2022-08-26T17:37:22.551Z,4.60
2022-08-26T17:40:16.291Z,5.00
2022-08-26T17:43:11.683Z,4.53
2022-08-26T17:46:06.803Z,4.35
2022-08-26T17:48:56.865Z,4.68
2022-08-26T17:51:47.129Z,4.28
2022-08-26T17:54:36.569Z,4.50
2022-08-26T17:57:26.922Z,4.68
2022-08-26T18:00:21.973Z,5.00
2022-08-26T18:03:12.129Z,4.72
2022-08-26T18:06:01.340Z,4.45
2022-08-26T18:08:50.605Z,4.90
2022-08-26T18:11:41.311Z,4.38
2022-08-26T18:14:30.839Z,4.75
2022-08-26T18:17:20.497Z,4.40
2022-08-26T18:20:18.108Z,4.45
2022-08-26T18:23:07.507Z,4.63
2022-08-26T18:25:57.131Z,4.78
2022-08-26T18:28:47.025Z,4.40
2022-08-26T18:31:36.637Z,4.40
2022-08-26T18:34:26.380Z,4.53
2022-08-26T18:37:21.090Z,4.28
2022-08-26T18:40:13.097Z,4.32
2022-08-26T18:43:02.443Z,4.47
2022-08-26T18:46:02.946Z,4.57
2022-08-26T18:48:53.455Z,4.38
2022-08-26T18:51:44.273Z,4.38
2022-08-26T18:54:33.613Z,4.40
2022-08-26T18:57:24.115Z,4.50
2022-08-26T19:00:14.061Z,4.32
2022-08-26T19:03:04.902Z,4.00
2022-08-26T19:05:58.634Z,4.20
2022-08-26T19:08:49.826Z,4.03
2022-08-26T19:11:43.023Z,3.85
2022-08-26T19:14:33.018Z,4.20
2022-08-26T19:17:22.610Z,4.20
2022-08-26T19:20:12.678Z,4.40
2022-08-26T19:23:10.612Z,4.30
2022-08-26T19:26:13.082Z,3.95
2022-08-26T19:29:04.135Z,4.20
2022-08-26T19:31:53.310Z,3.95
2022-08-26T19:34:42.650Z,4.18
2022-08-26T19:37:32.490Z,4.00
2022-08-26T19:40:21.867Z,4.20
2022-08-26T19:43:12.159Z,3.90
2022-08-26T19:46:01.639Z,3.65
2022-08-26T19:48:55.269Z,3.90
2022-08-26T19:51:45.138Z,3.80
2022-08-26T19:54:36.320Z,4.20
2022-08-26T19:57:26.490Z,4.18
2022-08-26T20:00:19.198Z,3.63
2022-08-26T20:03:13.034Z,3.95
2022-08-26T20:06:07.898Z,3.80
2022-08-26T20:08:57.479Z,4.43
2022-08-26T20:11:46.777Z,3.80
2022-08-26T20:14:37.439Z,3.75
2022-08-26T20:17:26.832Z,3.75
2022-08-26T20:20:34.818Z,3.75
2022-08-26T20:23:24.317Z,3.45
2022-08-26T20:26:14.278Z,3.80
2022-08-26T20:29:04.851Z,4.05
2022-08-26T20:31:55.524Z,3.70
2022-08-26T20:34:44.870Z,3.50
2022-08-26T20:37:34.357Z,3.90
2022-08-26T20:40:24.190Z,3.70
2022-08-26T20:43:14.761Z,3.70
2022-08-26T20:46:04.232Z,3.63
2022-08-26T20:48:59.588Z,4.00
2022-08-26T20:51:53.798Z,3.58
2022-08-26T20:54:43.272Z,3.50
2022-08-26T20:57:32.704Z,3.75
2022-08-26T21:00:26.480Z,4.00
2022-08-26T21:03:17.678Z,3.70
2022-08-26T21:06:07.121Z,3.80
2022-08-26T21:08:56.557Z,3.78
2022-08-26T21:11:46.758Z,3.95
2022-08-26T21:14:36.272Z,3.70
2022-08-26T21:17:25.598Z,3.70
2022-08-26T21:20:15.917Z,3.80
2022-08-26T21:23:07.018Z,3.67
2022-08-26T21:25:56.597Z,3.97
2022-08-26T21:28:47.180Z,3.85
2022-08-26T21:31:36.891Z,3.80
2022-08-26T21:34:28.121Z,3.85
2022-08-26T21:37:17.757Z,4.05
2022-08-26T21:40:08.839Z,3.90
2022-08-26T21:42:58.517Z,3.80
2022-08-26T21:45:47.908Z,3.75
2022-08-26T21:48:37.417Z,3.80
2022-08-26T21:51:29.276Z,3.80
2022-08-26T21:54:19.099Z,4.13
2022-08-26T21:57:08.797Z,4.00
2022-08-26T21:59:58.319Z,3.88
2022-08-26T22:02:51.157Z,4.07
2022-08-26T22:05:52.358Z,3.63
2022-08-26T22:08:42.037Z,3.78
2022-08-26T22:11:32.758Z,3.75
2022-08-26T22:14:30.918Z,3.55
2022-08-26T22:17:20.641Z,3.30
2022-08-26T22:20:16.713Z,3.70
2022-08-26T22:23:07.717Z,3.30
2022-08-26T22:25:57.908Z,3.30
2022-08-26T22:28:47.370Z,3.58
2022-08-26T22:31:38.621Z,3.30
2022-08-26T22:34:29.097Z,3.53
2022-08-26T22:37:18.557Z,3.38
2022-08-26T22:40:08.983Z,3.42
2022-08-26T22:43:00.324Z,3.47
2022-08-26T22:45:51.964Z,3.80
2022-08-26T22:48:41.337Z,3.60
2022-08-26T22:51:30.939Z,3.60
2022-08-26T22:54:21.240Z,3.50
2022-08-26T22:57:10.557Z,3.33
2022-08-26T23:00:00.209Z,3.25
2022-08-26T23:02:49.668Z,3.55
2022-08-26T23:05:40.047Z,3.28
2022-08-26T23:08:29.638Z,3.42
2022-08-26T23:11:20.378Z,3.40
2022-08-26T23:14:10.210Z,3.63
2022-08-26T23:16:59.799Z,3.20
2022-08-26T23:19:49.438Z,3.25
2022-08-26T23:22:39.244Z,3.25
2022-08-26T23:25:30.564Z,3.30
2022-08-26T23:28:21.877Z,3.40
2022-08-26T23:31:11.597Z,3.60
2022-08-26T23:34:19.671Z,3.15
2022-08-26T23:37:10.397Z,3.15
2022-08-26T23:40:00.948Z,3.33
2022-08-26T23:42:52.623Z,3.55
2022-08-26T23:45:41.944Z,3.58
2022-08-26T23:48:31.258Z,3.50
2022-08-26T23:51:39.357Z,3.65
2022-08-26T23:54:28.877Z,3.25
2022-08-26T23:57:20.169Z,3.25
